sensor_id;sensor_type;location;lat;lon;timestamp;pressure;altitude;pressure_sealevel;temperature;humidity
42859;BME280;28505;56.970;40.998;2022-09-09T00:04:59;100604.41;;;6.36;100.00
42859;BME280;28505;56.970;40.998;2022-09-09T00:16:15;100640.78;;;6.54;100.00
42859;BME280;28505;56.970;40.998;2022-09-09T00:22:12;100591.31;;;6.18;100.00
42859;BME280;28505;56.970;40.998;2022-09-09T00:27:45;100616.56;;;6.22;100.00
42859;BME280;28505;56.970;40.998;2022-09-09T00:33:20;100635.41;;;6.32;100.00
42859;BME280;28505;56.970;40.998;2022-09-09T00:38:52;100597.78;;;6.00;100.00
42859;BME280;28505;56.970;40.998;2022-09-09T00:44:33;100609.28;;;6.00;100.00
42859;BME280;28505;56.970;40.998;2022-09-09T00:50:02;100621.59;;;6.01;100.00
42859;BME280;28505;56.970;40.998;2022-09-09T01:01:42;100664.25;;;6.25;100.00
42859;BME280;28505;56.970;40.998;2022-09-09T01:07:18;100644.22;;;6.10;100.00
42859;BME280;28505;56.970;40.998;2022-09-09T01:12:49;100671.25;;;6.31;100.00
42859;BME280;28505;56.970;40.998;2022-09-09T01:18:23;100652.56;;;6.14;100.00
42859;BME280;28505;56.970;40.998;2022-09-09T01:24:12;100655.81;;;6.16;100.00
42859;BME280;28505;56.970;40.998;2022-09-09T01:29:59;100646.34;;;6.08;100.00
42859;BME280;28505;56.970;40.998;2022-09-09T01:35:37;100707.06;;;6.42;100.00
42859;BME280;28505;56.970;40.998;2022-09-09T01:41:02;100641.41;;;6.00;100.00
42859;BME280;28505;56.970;40.998;2022-09-09T01:46:35;100709.41;;;6.38;100.00
42859;BME280;28505;56.970;40.998;2022-09-09T01:51:58;100695.81;;;6.23;100.00
42859;BME280;28505;56.970;40.998;2022-09-09T01:57:38;100704.91;;;6.22;100.00
42859;BME280;28505;56.970;40.998;2022-09-09T02:08:59;100722.97;;;6.15;100.00
42859;BME280;28505;56.970;40.998;2022-09-09T02:14:27;100739.56;;;6.12;100.00
42859;BME280;28505;56.970;40.998;2022-09-09T02:20:09;100746.44;;;6.07;100.00
42859;BME280;28505;56.970;40.998;2022-09-09T02:25:39;100746.38;;;6.02;100.00
42859;BME280;28505;56.970;40.998;2022-09-09T02:31:18;100737.75;;;6.00;100.00
42859;BME280;28505;56.970;40.998;2022-09-09T02:36:44;100752.19;;;5.99;100.00
42859;BME280;28505;56.970;40.998;2022-09-09T02:42:08;100755.09;;;5.98;100.00
42859;BME280;28505;56.970;40.998;2022-09-09T02:47:37;100757.56;;;5.99;100.00
42859;BME280;28505;56.970;40.998;2022-09-09T02:53:50;100775.88;;;6.07;100.00
42859;BME280;28505;56.970;40.998;2022-09-09T02:59:10;100714.69;;;5.66;100.00
42859;BME280;28505;56.970;40.998;2022-09-09T03:04:34;100784.00;;;6.13;100.00
42859;BME280;28505;56.970;40.998;2022-09-09T03:10:01;100786.69;;;6.13;100.00
42859;BME280;28505;56.970;40.998;2022-09-09T03:15:23;100770.53;;;6.07;100.00
42859;BME280;28505;56.970;40.998;2022-09-09T03:20:47;100779.78;;;6.17;100.00
42859;BME280;28505;56.970;40.998;2022-09-09T03:26:11;100789.25;;;6.24;100.00
42859;BME280;28505;56.970;40.998;2022-09-09T03:31:38;100794.72;;;6.29;100.00
42859;BME280;28505;56.970;40.998;2022-09-09T03:37:03;100790.75;;;6.32;100.00
42859;BME280;28505;56.970;40.998;2022-09-09T03:42:26;100778.47;;;6.36;100.00
42859;BME280;28505;56.970;40.998;2022-09-09T03:47:50;100739.63;;;6.17;100.00
42859;BME280;28505;56.970;40.998;2022-09-09T03:53:40;100767.19;;;6.17;100.00
42859;BME280;28505;56.970;40.998;2022-09-09T03:59:03;100809.47;;;6.32;100.00
42859;BME280;28505;56.970;40.998;2022-09-09T04:04:26;100821.16;;;6.26;100.00
42859;BME280;28505;56.970;40.998;2022-09-09T04:09:49;100823.25;;;6.24;100.00
42859;BME280;28505;56.970;40.998;2022-09-09T04:15:12;100823.84;;;6.26;100.00
42859;BME280;28505;56.970;40.998;2022-09-09T04:20:34;100826.44;;;6.38;100.00
42859;BME280;28505;56.970;40.998;2022-09-09T04:25:58;100809.63;;;6.42;100.00
42859;BME280;28505;56.970;40.998;2022-09-09T04:31:22;100834.34;;;6.83;100.00
42859;BME280;28505;56.970;40.998;2022-09-09T04:36:48;100816.91;;;6.80;100.00
42859;BME280;28505;56.970;40.998;2022-09-09T04:42:11;100835.03;;;6.95;100.00
42859;BME280;28505;56.970;40.998;2022-09-09T04:47:33;100846.41;;;7.02;100.00
42859;BME280;28505;56.970;40.998;2022-09-09T04:53:00;100846.97;;;7.48;100.00
42859;BME280;28505;56.970;40.998;2022-09-09T04:58:23;100860.63;;;7.69;100.00
42859;BME280;28505;56.970;40.998;2022-09-09T05:03:47;100860.25;;;7.82;100.00
42859;BME280;28505;56.970;40.998;2022-09-09T05:09:13;100864.72;;;7.98;100.00
42859;BME280;28505;56.970;40.998;2022-09-09T05:14:37;100868.16;;;8.21;100.00
42859;BME280;28505;56.970;40.998;2022-09-09T05:20:00;100879.31;;;8.72;100.00
42859;BME280;28505;56.970;40.998;2022-09-09T05:25:29;100895.69;;;9.03;100.00
42859;BME280;28505;56.970;40.998;2022-09-09T05:31:04;100890.41;;;9.28;100.00
42859;BME280;28505;56.970;40.998;2022-09-09T05:36:27;100886.81;;;9.70;100.00
42859;BME280;28505;56.970;40.998;2022-09-09T05:41:50;100879.91;;;9.95;100.00
42859;BME280;28505;56.970;40.998;2022-09-09T05:47:13;100899.28;;;10.07;100.00
42859;BME280;28505;56.970;40.998;2022-09-09T05:52:37;100900.41;;;10.11;100.00
42859;BME280;28505;56.970;40.998;2022-09-09T05:58:00;100897.16;;;10.09;100.00
42859;BME280;28505;56.970;40.998;2022-09-09T06:03:22;100902.00;;;10.12;100.00
42859;BME280;28505;56.970;40.998;2022-09-09T06:08:45;100905.81;;;10.26;100.00
42859;BME280;28505;56.970;40.998;2022-09-09T06:14:09;100903.44;;;10.71;100.00
42859;BME280;28505;56.970;40.998;2022-09-09T06:19:33;100907.44;;;10.94;97.02
42859;BME280;28505;56.970;40.998;2022-09-09T06:24:55;100899.91;;;10.91;94.72
42859;BME280;28505;56.970;40.998;2022-09-09T06:30:17;100918.50;;;11.13;91.15
42859;BME280;28505;56.970;40.998;2022-09-09T06:35:40;100922.75;;;11.34;88.72
42859;BME280;28505;56.970;40.998;2022-09-09T06:41:02;100910.38;;;11.28;85.19
42859;BME280;28505;56.970;40.998;2022-09-09T06:46:30;100876.19;;;10.83;85.82
42859;BME280;28505;56.970;40.998;2022-09-09T06:51:55;100901.13;;;11.34;84.68
42859;BME280;28505;56.970;40.998;2022-09-09T06:57:17;100859.09;;;11.18;82.49
42859;BME280;28505;56.970;40.998;2022-09-09T07:03:02;100888.81;;;11.08;83.76
42859;BME280;28505;56.970;40.998;2022-09-09T07:08:27;100887.16;;;11.22;85.28
42859;BME280;28505;56.970;40.998;2022-09-09T07:13:50;100938.88;;;11.60;84.19
42859;BME280;28505;56.970;40.998;2022-09-09T07:19:15;100925.72;;;11.33;82.06
42859;BME280;28505;56.970;40.998;2022-09-09T07:24:40;100936.03;;;11.05;85.91
42859;BME280;28505;56.970;40.998;2022-09-09T07:30:03;100925.00;;;10.96;86.81
42859;BME280;28505;56.970;40.998;2022-09-09T07:35:31;100886.97;;;10.72;85.60
42859;BME280;28505;56.970;40.998;2022-09-09T07:41:08;100941.97;;;10.92;84.15
42859;BME280;28505;56.970;40.998;2022-09-09T07:46:35;100952.22;;;11.05;87.44
42859;BME280;28505;56.970;40.998;2022-09-09T07:51:58;100915.00;;;11.12;87.71
42859;BME280;28505;56.970;40.998;2022-09-09T07:57:21;100948.16;;;11.28;86.38
42859;BME280;28505;56.970;40.998;2022-09-09T08:02:45;100938.75;;;10.95;85.42
42859;BME280;28505;56.970;40.998;2022-09-09T08:08:08;100968.41;;;11.15;87.15
42859;BME280;28505;56.970;40.998;2022-09-09T08:13:31;100962.50;;;11.03;82.10
42859;BME280;28505;56.970;40.998;2022-09-09T08:18:53;100964.09;;;10.89;84.24
42859;BME280;28505;56.970;40.998;2022-09-09T08:24:17;100954.84;;;11.41;82.19
42859;BME280;28505;56.970;40.998;2022-09-09T08:29:43;100960.72;;;11.63;78.93
42859;BME280;28505;56.970;40.998;2022-09-09T08:35:07;100968.34;;;11.51;76.75
42859;BME280;28505;56.970;40.998;2022-09-09T08:40:33;100974.31;;;11.33;76.31
42859;BME280;28505;56.970;40.998;2022-09-09T08:46:07;100971.63;;;11.17;76.50
42859;BME280;28505;56.970;40.998;2022-09-09T08:51:32;100975.41;;;11.27;78.11
42859;BME280;28505;56.970;40.998;2022-09-09T08:56:55;100971.34;;;11.44;76.83
42859;BME280;28505;56.970;40.998;2022-09-09T09:19:44;100920.66;;;11.16;76.05
42859;BME280;28505;56.970;40.998;2022-09-09T09:25:12;100985.56;;;11.60;74.24
42859;BME280;28505;56.970;40.998;2022-09-09T09:30:50;100968.38;;;11.36;72.56
42859;BME280;28505;56.970;40.998;2022-09-09T09:36:16;100975.94;;;11.39;75.78
42859;BME280;28505;56.970;40.998;2022-09-09T09:41:42;100971.06;;;11.31;76.24
42859;BME280;28505;56.970;40.998;2022-09-09T09:47:15;100971.59;;;11.38;75.21
42859;BME280;28505;56.970;40.998;2022-09-09T09:52:54;100961.25;;;11.65;75.32
42859;BME280;28505;56.970;40.998;2022-09-09T09:58:25;100956.22;;;12.13;71.02
42859;BME280;28505;56.970;40.998;2022-09-09T10:03:54;100956.44;;;12.61;71.38
42859;BME280;28505;56.970;40.998;2022-09-09T10:09:30;100948.50;;;12.36;67.74
42859;BME280;28505;56.970;40.998;2022-09-09T10:26:28;100976.31;;;11.97;70.21
42859;BME280;28505;56.970;40.998;2022-09-09T10:38:14;100980.31;;;12.00;69.07
42859;BME280;28505;56.970;40.998;2022-09-09T10:49:57;100961.44;;;12.44;68.70
42859;BME280;28505;56.970;40.998;2022-09-09T10:56:09;100956.03;;;12.78;66.26
42859;BME280;28505;56.970;40.998;2022-09-09T11:01:51;100949.56;;;13.08;66.06
42859;BME280;28505;56.970;40.998;2022-09-09T11:07:44;100943.88;;;13.34;62.31
42859;BME280;28505;56.970;40.998;2022-09-09T11:13:11;100950.28;;;13.14;62.25
42859;BME280;28505;56.970;40.998;2022-09-09T11:18:39;100948.13;;;12.87;64.37
42859;BME280;28505;56.970;40.998;2022-09-09T11:24:08;100967.13;;;12.77;65.18
42859;BME280;28505;56.970;40.998;2022-09-09T11:29:47;100956.56;;;13.09;65.58
42859;BME280;28505;56.970;40.998;2022-09-09T11:35:31;100964.00;;;13.28;64.08
42859;BME280;28505;56.970;40.998;2022-09-09T11:41:07;100924.06;;;12.85;63.71
42859;BME280;28505;56.970;40.998;2022-09-09T11:46:36;100942.56;;;12.73;64.04
42859;BME280;28505;56.970;40.998;2022-09-09T11:52:11;100960.06;;;12.81;64.86
42859;BME280;28505;56.970;40.998;2022-09-09T11:57:36;100929.34;;;12.67;63.95
42859;BME280;28505;56.970;40.998;2022-09-09T12:02:58;100960.38;;;13.08;63.15
42859;BME280;28505;56.970;40.998;2022-09-09T12:08:27;100926.38;;;12.97;63.11
42859;BME280;28505;56.970;40.998;2022-09-09T12:13:56;100965.25;;;13.06;62.52
42859;BME280;28505;56.970;40.998;2022-09-09T12:19:22;100943.41;;;12.98;60.65
42859;BME280;28505;56.970;40.998;2022-09-09T12:24:58;100963.78;;;13.19;60.43
42859;BME280;28505;56.970;40.998;2022-09-09T12:30:36;100945.78;;;13.04;60.92
42859;BME280;28505;56.970;40.998;2022-09-09T12:35:59;100953.97;;;12.99;59.94
42859;BME280;28505;56.970;40.998;2022-09-09T12:41:27;100948.75;;;12.79;60.41
42859;BME280;28505;56.970;40.998;2022-09-09T12:46:52;100955.22;;;12.78;59.65
42859;BME280;28505;56.970;40.998;2022-09-09T12:57:43;100953.56;;;12.48;61.11
42859;BME280;28505;56.970;40.998;2022-09-09T13:03:18;100923.72;;;12.24;61.52
42859;BME280;28505;56.970;40.998;2022-09-09T13:08:42;100963.59;;;12.42;61.58
42859;BME280;28505;56.970;40.998;2022-09-09T13:14:05;100927.44;;;12.33;62.41
42859;BME280;28505;56.970;40.998;2022-09-09T13:19:31;100959.28;;;12.46;61.65
42859;BME280;28505;56.970;40.998;2022-09-09T13:25:13;100967.81;;;12.58;61.63
42859;BME280;28505;56.970;40.998;2022-09-09T13:30:39;100939.97;;;12.58;60.42
42859;BME280;28505;56.970;40.998;2022-09-09T13:36:08;100903.63;;;12.35;61.26
42859;BME280;28505;56.970;40.998;2022-09-09T13:41:34;100961.81;;;12.67;60.04
42859;BME280;28505;56.970;40.998;2022-09-09T13:47:01;100946.31;;;12.38;59.64
42859;BME280;28505;56.970;40.998;2022-09-09T13:52:30;100948.00;;;12.29;61.01
42859;BME280;28505;56.970;40.998;2022-09-09T13:57:58;100956.41;;;12.27;62.08
42859;BME280;28505;56.970;40.998;2022-09-09T14:03:22;100939.44;;;12.16;62.56
42859;BME280;28505;56.970;40.998;2022-09-09T14:08:44;100929.75;;;12.10;62.93
42859;BME280;28505;56.970;40.998;2022-09-09T14:14:06;100924.13;;;12.02;62.67
42859;BME280;28505;56.970;40.998;2022-09-09T14:19:28;100930.88;;;11.99;62.88
42859;BME280;28505;56.970;40.998;2022-09-09T14:24:51;100932.00;;;11.93;63.00
42859;BME280;28505;56.970;40.998;2022-09-09T14:30:13;100946.59;;;11.87;63.61
42859;BME280;28505;56.970;40.998;2022-09-09T14:35:38;100952.31;;;11.75;64.60
42859;BME280;28505;56.970;40.998;2022-09-09T14:41:00;100930.00;;;11.49;65.33
42859;BME280;28505;56.970;40.998;2022-09-09T14:46:24;100930.84;;;11.44;66.42
42859;BME280;28505;56.970;40.998;2022-09-09T14:51:47;100916.56;;;11.23;67.33
42859;BME280;28505;56.970;40.998;2022-09-09T14:57:09;100953.56;;;11.23;67.79
42859;BME280;28505;56.970;40.998;2022-09-09T15:02:31;100961.94;;;11.06;69.12
42859;BME280;28505;56.970;40.998;2022-09-09T15:07:54;100960.06;;;10.86;69.86
42859;BME280;28505;56.970;40.998;2022-09-09T15:13:16;100970.59;;;10.67;70.80
42859;BME280;28505;56.970;40.998;2022-09-09T15:18:42;100966.78;;;10.43;71.36
42859;BME280;28505;56.970;40.998;2022-09-09T15:24:07;100973.19;;;10.21;72.98
42859;BME280;28505;56.970;40.998;2022-09-09T15:29:30;100978.75;;;9.99;74.60
42859;BME280;28505;56.970;40.998;2022-09-09T15:34:52;100985.97;;;9.78;75.64
42859;BME280;28505;56.970;40.998;2022-09-09T15:40:14;100962.91;;;9.45;76.79
42859;BME280;28505;56.970;40.998;2022-09-09T15:45:37;100991.16;;;9.43;78.11
42859;BME280;28505;56.970;40.998;2022-09-09T15:51:03;100974.31;;;9.20;79.62
42859;BME280;28505;56.970;40.998;2022-09-09T15:56:46;100991.25;;;9.16;81.72
42859;BME280;28505;56.970;40.998;2022-09-09T16:02:11;100962.28;;;8.90;83.23
42859;BME280;28505;56.970;40.998;2022-09-09T16:07:37;100945.47;;;8.73;84.00
42859;BME280;28505;56.970;40.998;2022-09-09T16:13:02;100944.56;;;8.62;85.08
42859;BME280;28505;56.970;40.998;2022-09-09T16:18:45;100949.75;;;8.42;85.94
42859;BME280;28505;56.970;40.998;2022-09-09T16:24:24;100990.97;;;8.53;87.63
42859;BME280;28505;56.970;40.998;2022-09-09T16:30:03;100948.09;;;8.14;88.45
42859;BME280;28505;56.970;40.998;2022-09-09T16:35:37;100966.34;;;8.12;90.18
42859;BME280;28505;56.970;40.998;2022-09-09T16:41:08;100991.22;;;8.24;91.48
42859;BME280;28505;56.970;40.998;2022-09-09T16:46:32;101022.88;;;8.44;92.84
42859;BME280;28505;56.970;40.998;2022-09-09T16:51:59;101038.75;;;8.46;94.27
42859;BME280;28505;56.970;40.998;2022-09-09T16:57:25;101028.50;;;8.42;94.93
42859;BME280;28505;56.970;40.998;2022-09-09T17:02:47;101044.19;;;8.51;96.20
42859;BME280;28505;56.970;40.998;2022-09-09T17:08:32;101028.56;;;8.48;97.29
42859;BME280;28505;56.970;40.998;2022-09-09T17:13:56;100963.56;;;8.02;98.19
42859;BME280;28505;56.970;40.998;2022-09-09T17:19:23;101026.56;;;8.38;99.01
42859;BME280;28505;56.970;40.998;2022-09-09T17:24:51;100990.75;;;8.10;99.79
42859;BME280;28505;56.970;40.998;2022-09-09T17:30:18;100997.47;;;8.08;100.00
42859;BME280;28505;56.970;40.998;2022-09-09T17:35:53;100974.53;;;7.78;100.00
42859;BME280;28505;56.970;40.998;2022-09-09T17:41:21;101002.25;;;7.84;100.00
42859;BME280;28505;56.970;40.998;2022-09-09T17:46:50;101048.66;;;7.79;100.00
42859;BME280;28505;56.970;40.998;2022-09-09T17:52:17;100999.44;;;7.35;100.00
42859;BME280;28505;56.970;40.998;2022-09-09T17:57:45;101048.53;;;7.52;100.00
42859;BME280;28505;56.970;40.998;2022-09-09T18:03:10;101016.69;;;7.22;100.00
42859;BME280;28505;56.970;40.998;2022-09-09T18:08:36;100975.56;;;6.99;100.00
42859;BME280;28505;56.970;40.998;2022-09-09T18:14:01;100972.09;;;6.82;100.00
42859;BME280;28505;56.970;40.998;2022-09-09T18:19:26;100977.53;;;6.87;100.00
42859;BME280;28505;56.970;40.998;2022-09-09T18:24:49;100981.50;;;6.85;100.00
42859;BME280;28505;56.970;40.998;2022-09-09T18:30:13;100981.91;;;6.76;100.00
42859;BME280;28505;56.970;40.998;2022-09-09T18:35:36;100984.19;;;6.68;100.00
42859;BME280;28505;56.970;40.998;2022-09-09T18:41:01;100980.75;;;6.55;100.00
42859;BME280;28505;56.970;40.998;2022-09-09T18:46:36;100986.84;;;6.51;100.00
42859;BME280;28505;56.970;40.998;2022-09-09T18:52:03;100983.16;;;6.40;100.00
42859;BME280;28505;56.970;40.998;2022-09-09T18:57:34;100989.47;;;6.34;100.00
42859;BME280;28505;56.970;40.998;2022-09-09T19:02:59;101046.13;;;6.54;100.00
42859;BME280;28505;56.970;40.998;2022-09-09T19:08:23;101067.88;;;6.58;100.00
42859;BME280;28505;56.970;40.998;2022-09-09T19:14:12;101058.13;;;6.52;100.00
42859;BME280;28505;56.970;40.998;2022-09-09T19:19:35;101078.63;;;6.46;100.00
42859;BME280;28505;56.970;40.998;2022-09-09T19:24:57;101076.69;;;6.30;100.00
42859;BME280;28505;56.970;40.998;2022-09-09T19:30:23;101076.16;;;6.16;100.00
42859;BME280;28505;56.970;40.998;2022-09-09T19:35:56;101084.31;;;6.09;100.00
42859;BME280;28505;56.970;40.998;2022-09-09T19:41:21;101061.25;;;5.85;100.00
42859;BME280;28505;56.970;40.998;2022-09-09T19:46:46;101050.69;;;5.78;100.00
42859;BME280;28505;56.970;40.998;2022-09-09T19:52:08;101083.97;;;5.94;100.00
42859;BME280;28505;56.970;40.998;2022-09-09T19:57:30;101082.38;;;5.93;100.00
42859;BME280;28505;56.970;40.998;2022-09-09T20:02:53;101029.22;;;5.50;100.00
42859;BME280;28505;56.970;40.998;2022-09-09T20:08:36;101027.69;;;5.30;100.00
42859;BME280;28505;56.970;40.998;2022-09-09T20:14:06;101068.72;;;5.36;100.00
42859;BME280;28505;56.970;40.998;2022-09-09T20:19:30;101041.38;;;5.22;100.00
42859;BME280;28505;56.970;40.998;2022-09-09T20:24:53;101023.25;;;5.12;100.00
42859;BME280;28505;56.970;40.998;2022-09-09T20:30:22;101093.25;;;5.45;100.00
42859;BME280;28505;56.970;40.998;2022-09-09T20:35:45;101044.84;;;4.99;100.00
42859;BME280;28505;56.970;40.998;2022-09-09T20:41:08;101057.53;;;5.04;100.00
42859;BME280;28505;56.970;40.998;2022-09-09T20:46:40;101100.44;;;5.32;100.00
42859;BME280;28505;56.970;40.998;2022-09-09T20:52:03;101030.38;;;4.77;100.00
42859;BME280;28505;56.970;40.998;2022-09-09T20:57:27;101041.06;;;4.77;100.00
42859;BME280;28505;56.970;40.998;2022-09-09T21:02:50;101098.09;;;5.12;100.00
42859;BME280;28505;56.970;40.998;2022-09-09T21:08:12;101083.97;;;4.93;100.00
42859;BME280;28505;56.970;40.998;2022-09-09T21:13:36;101109.66;;;4.95;100.00
42859;BME280;28505;56.970;40.998;2022-09-09T21:18:58;101117.88;;;4.81;100.00
42859;BME280;28505;56.970;40.998;2022-09-09T21:24:20;101108.03;;;4.63;100.00
42859;BME280;28505;56.970;40.998;2022-09-09T21:29:42;101118.84;;;4.68;100.00
42859;BME280;28505;56.970;40.998;2022-09-09T21:35:05;101117.00;;;4.51;100.00
42859;BME280;28505;56.970;40.998;2022-09-09T21:40:28;101104.34;;;4.28;100.00
42859;BME280;28505;56.970;40.998;2022-09-09T21:45:50;101113.41;;;4.27;100.00
42859;BME280;28505;56.970;40.998;2022-09-09T21:51:14;101123.56;;;4.18;100.00
42859;BME280;28505;56.970;40.998;2022-09-09T21:56:36;101075.88;;;3.85;100.00
42859;BME280;28505;56.970;40.998;2022-09-09T22:01:58;101114.94;;;3.97;100.00
42859;BME280;28505;56.970;40.998;2022-09-09T22:07:23;101112.34;;;3.91;100.00
42859;BME280;28505;56.970;40.998;2022-09-09T22:12:48;101050.03;;;3.42;100.00
42859;BME280;28505;56.970;40.998;2022-09-09T22:18:17;101080.50;;;3.52;100.00
42859;BME280;28505;56.970;40.998;2022-09-09T22:23:40;101066.47;;;3.39;100.00
42859;BME280;28505;56.970;40.998;2022-09-09T22:29:03;101116.94;;;3.59;100.00
42859;BME280;28505;56.970;40.998;2022-09-09T22:34:31;101127.94;;;3.69;100.00
42859;BME280;28505;56.970;40.998;2022-09-09T22:39:55;101062.88;;;3.26;100.00
42859;BME280;28505;56.970;40.998;2022-09-09T22:45:21;101096.66;;;3.33;100.00
42859;BME280;28505;56.970;40.998;2022-09-09T22:50:47;101115.63;;;3.43;100.00
42859;BME280;28505;56.970;40.998;2022-09-09T22:56:18;101064.03;;;3.12;100.00
42859;BME280;28505;56.970;40.998;2022-09-09T23:01:48;101068.75;;;3.10;100.00
42859;BME280;28505;56.970;40.998;2022-09-09T23:07:12;101139.81;;;3.48;100.00
42859;BME280;28505;56.970;40.998;2022-09-09T23:12:34;101139.06;;;3.41;100.00
42859;BME280;28505;56.970;40.998;2022-09-09T23:17:58;101135.63;;;3.34;100.00
42859;BME280;28505;56.970;40.998;2022-09-09T23:23:19;101123.16;;;3.27;100.00
42859;BME280;28505;56.970;40.998;2022-09-09T23:28:41;101141.34;;;3.37;100.00
42859;BME280;28505;56.970;40.998;2022-09-09T23:34:04;101148.06;;;3.40;100.00
42859;BME280;28505;56.970;40.998;2022-09-09T23:39:26;101147.06;;;3.41;100.00
42859;BME280;28505;56.970;40.998;2022-09-09T23:44:48;101138.91;;;3.29;100.00
42859;BME280;28505;56.970;40.998;2022-09-09T23:50:11;101158.72;;;3.40;100.00
42859;BME280;28505;56.970;40.998;2022-09-09T23:55:33;101158.56;;;3.35;100.00
